Time;durP1;ratioP1;P1;durP2;ratioP2;P2;SDS_P1;SDS_P2;PMS_P1;PMS_P2;Temp;Humidity;BMP_temperature;BMP_pressure;BME280_temperature;BME280_humidity;BME280_pressure;Samples;Min_cycle;Max_cycle;Signal;HPM_P1;HPM_P2
2021/09/21 00:07:03;;;;;;;0.20;0.20;;;16.10;99.90;;;;;;21042753;23;20238;-68
2021/09/21 00:17:08;;;;;;;0.20;0.00;;;16.30;99.90;;;;;;21074090;28;20730;-68
2021/09/21 00:27:12;;;;;;;0.20;0.20;;;16.30;99.90;;;;;;21073030;28;20196;-67
2021/09/21 00:37:17;;;;;;;0.20;0.10;;;16.40;99.90;;;;;;21072239;28;20230;-67
2021/09/21 00:47:22;;;;;;;0.20;0.00;;;16.40;99.90;;;;;;21054115;28;20188;-68
2021/09/21 00:57:28;;;;;;;0.20;0.00;;;16.30;99.90;;;;;;21070770;28;20252;-67
2021/09/21 01:07:31;;;;;;;0.20;0.10;;;16.30;99.90;;;;;;21062107;23;20712;-71
2021/09/21 01:17:36;;;;;;;0.20;0.10;;;16.30;99.90;;;;;;21061200;28;20258;-70
2021/09/21 01:27:41;;;;;;;0.20;0.00;;;16.30;99.90;;;;;;21049002;28;20287;-71
2021/09/21 01:37:51;;;;;;;1.07;0.97;;;16.40;99.90;;;;;;21067757;28;20318;-69
2021/09/21 01:47:58;;;;;;;0.30;0.20;;;16.50;99.90;;;;;;21067742;28;20183;-71
2021/09/21 01:58:46;;;;;;;0.20;0.10;;;16.60;99.90;;;;;;21067344;28;20315;-70
2021/09/21 02:08:51;;;;;;;0.20;0.17;;;16.80;99.90;;;;;;21076686;22;20600;-66
2021/09/21 02:18:56;;;;;;;0.20;0.07;;;16.90;99.90;;;;;;21065844;28;20277;-67
2021/09/21 02:29:01;;;;;;;0.20;0.10;;;16.80;99.90;;;;;;21064742;28;20280;-67
2021/09/21 02:39:04;;;;;;;0.20;0.17;;;16.80;99.90;;;;;;21082545;28;20228;-68
2021/09/21 02:49:09;;;;;;;0.20;0.10;;;16.90;99.90;;;;;;21081778;28;20220;-67
2021/09/21 02:59:13;;;;;;;0.20;0.20;;;16.80;99.90;;;;;;21081390;28;20342;-66
2021/09/21 03:09:24;;;;;;;0.20;0.00;;;16.70;99.90;;;;;;21079930;28;20240;-66
2021/09/21 03:19:28;;;;;;;0.20;0.10;;;16.70;99.90;;;;;;21061058;28;20318;-67
2021/09/21 03:29:33;;;;;;;0.20;0.10;;;16.80;99.90;;;;;;21076775;28;20199;-66
2021/09/21 03:39:37;;;;;;;0.70;0.37;;;16.90;99.90;;;;;;21077190;28;20552;-67
2021/09/21 03:49:43;;;;;;;1.80;0.50;;;16.90;99.90;;;;;;21077035;28;20206;-67
2021/09/21 03:59:46;;;;;;;0.20;0.10;;;17.00;99.90;;;;;;21076005;28;20350;-68
2021/09/21 04:09:51;;;;;;;0.20;0.07;;;17.10;99.90;;;;;;21075601;28;20203;-68
2021/09/21 04:19:55;;;;;;;0.20;0.10;;;17.10;99.90;;;;;;21073801;28;20247;-69
2021/09/21 04:30:01;;;;;;;0.20;0.10;;;17.10;99.90;;;;;;21055574;28;20669;-69
2021/09/21 04:40:06;;;;;;;0.20;0.10;;;17.20;99.90;;;;;;21053415;28;20220;-69
2021/09/21 04:50:11;;;;;;;0.30;0.30;;;17.00;99.90;;;;;;21070800;28;20193;-69
2021/09/21 05:00:17;;;;;;;0.97;0.47;;;17.10;99.90;;;;;;21072754;28;20223;-70
2021/09/21 05:10:23;;;;;;;0.20;0.00;;;17.10;99.90;;;;;;21058646;28;20200;-69
2021/09/21 05:20:26;;;;;;;0.20;0.10;;;17.10;99.90;;;;;;21048893;28;20772;-69
2021/09/21 05:30:32;;;;;;;4.33;1.80;;;17.10;99.90;;;;;;20984012;28;20203;-68
2021/09/21 05:40:36;;;;;;;0.20;0.10;;;17.00;99.90;;;;;;20981911;28;20307;-68
2021/09/21 05:50:41;;;;;;;0.20;0.20;;;16.80;99.90;;;;;;20980718;28;20295;-66
2021/09/21 06:00:44;;;;;;;0.33;0.30;;;17.10;99.90;;;;;;20988877;28;20625;-67
2021/09/21 06:10:50;;;;;;;0.20;0.20;;;16.90;99.90;;;;;;21041254;28;20649;-68
2021/09/21 06:20:54;;;;;;;0.70;0.60;;;16.90;99.90;;;;;;21022318;28;20216;-68
2021/09/21 06:30:59;;;;;;;0.20;0.10;;;16.90;99.90;;;;;;20979627;28;20239;-68
2021/09/21 06:41:02;;;;;;;0.20;0.07;;;17.30;99.90;;;;;;20979925;28;20193;-68
2021/09/21 06:51:09;;;;;;;0.40;0.30;;;17.30;99.90;;;;;;20961083;28;20243;-67
2021/09/21 07:01:12;;;;;;;0.43;0.40;;;17.50;99.90;;;;;;20987765;28;20263;-68
2021/09/21 07:11:30;;;;;;;0.20;0.00;;;17.90;99.90;;;;;;20993255;28;20256;-68
2021/09/21 07:21:34;;;;;;;0.40;0.20;;;17.80;99.90;;;;;;20992445;28;20235;-68
2021/09/21 07:31:39;;;;;;;0.20;0.17;;;17.90;99.90;;;;;;20999191;28;20208;-68
2021/09/21 07:41:43;;;;;;;0.20;0.10;;;17.90;99.90;;;;;;21008110;28;20563;-69
2021/09/21 07:51:48;;;;;;;0.20;0.20;;;18.00;99.90;;;;;;20992099;28;20361;-67
2021/09/21 08:01:52;;;;;;;0.30;0.30;;;18.10;99.90;;;;;;21011821;28;20252;-69
2021/09/21 08:11:58;;;;;;;0.23;0.20;;;18.00;99.90;;;;;;21072512;28;20219;-68
2021/09/21 08:22:01;;;;;;;0.87;0.80;;;18.20;99.90;;;;;;21043772;28;20548;-69
2021/09/21 08:32:08;;;;;;;0.20;0.20;;;18.30;99.90;;;;;;20989294;28;20216;-69
2021/09/21 08:42:12;;;;;;;0.70;0.33;;;18.30;99.90;;;;;;20987067;28;20208;-67
2021/09/21 08:52:18;;;;;;;0.57;0.50;;;18.40;99.90;;;;;;20967269;28;20225;-68
2021/09/21 09:02:23;;;;;;;0.30;0.20;;;18.40;99.90;;;;;;21008770;28;20756;-66
2021/09/21 09:12:32;;;;;;;0.20;0.10;;;18.60;99.90;;;;;;21066787;28;20220;-68
2021/09/21 09:22:36;;;;;;;2.00;0.50;;;18.90;99.90;;;;;;21028294;28;20215;-68
2021/09/21 09:32:49;;;;;;;1.70;1.27;;;19.40;99.90;;;;;;20982249;28;20248;-68
2021/09/21 09:42:53;;;;;;;0.50;0.50;;;19.50;99.90;;;;;;20982864;28;20695;-66
2021/09/21 09:53:07;;;;;;;3.10;0.53;;;19.50;99.90;;;;;;20981356;28;20248;-69
2021/09/21 10:03:11;;;;;;;0.83;0.60;;;19.40;99.90;;;;;;20981131;28;20262;-68
2021/09/21 10:13:19;;;;;;;0.30;0.30;;;19.40;99.90;;;;;;20980931;28;20239;-69
2021/09/21 10:23:23;;;;;;;0.40;0.40;;;19.30;99.90;;;;;;20979595;28;20633;-68
2021/09/21 10:33:29;;;;;;;5.83;0.40;;;19.50;99.90;;;;;;20985327;28;20228;-69
2021/09/21 10:43:34;;;;;;;0.20;0.20;;;19.50;99.90;;;;;;20996146;28;20196;-69
2021/09/21 10:54:05;;;;;;;0.20;0.20;;;20.00;99.90;;;;;;20977350;28;20224;-69
2021/09/21 11:04:09;;;;;;;0.20;0.00;;;20.40;99.90;;;;;;20994351;28;20274;-69
2021/09/21 11:14:19;;;;;;;0.27;0.20;;;20.70;99.90;;;;;;20994243;28;20309;-69
2021/09/21 11:24:23;;;;;;;0.30;0.30;;;21.40;99.90;;;;;;21026721;28;20203;-71
2021/09/21 11:34:29;;;;;;;0.52;0.40;;;22.70;99.90;;;;;;21081342;28;20227;-68
2021/09/21 11:44:40;;;;;;;0.22;0.10;;;22.60;99.90;;;;;;21058670;28;20196;-68
2021/09/21 11:54:45;;;;;;;0.20;0.17;;;23.10;99.90;;;;;;21073982;28;20318;-66
2021/09/21 12:04:52;;;;;;;0.20;0.10;;;22.90;99.90;;;;;;21073811;28;20306;-68
2021/09/21 12:15:01;;;;;;;0.32;0.32;;;24.00;99.90;;;;;;21073098;28;20227;-68
2021/09/21 12:25:09;;;;;;;0.90;0.35;;;24.60;99.90;;;;;;21012475;28;20201;-69
2021/09/21 12:35:14;;;;;;;0.40;0.40;;;25.10;99.90;;;;;;20981378;28;20554;-69
2021/09/21 12:45:19;;;;;;;0.20;0.20;;;24.40;99.90;;;;;;20983447;28;20196;-67
2021/09/21 12:55:35;;;;;;;1.45;0.30;;;24.10;99.90;;;;;;20985416;28;20322;-68
2021/09/21 13:05:39;;;;;;;0.20;0.15;;;24.10;99.90;;;;;;21038005;28;20573;-67
2021/09/21 13:15:44;;;;;;;0.73;0.43;;;24.60;99.90;;;;;;21069514;28;20520;-68
2021/09/21 13:25:48;;;;;;;0.55;0.30;;;27.40;99.90;;;;;;21003156;28;20284;-68
2021/09/21 13:35:53;;;;;;;0.20;0.10;;;26.00;99.90;;;;;;20982750;28;20316;-68
2021/09/21 13:45:57;;;;;;;0.70;0.50;;;25.00;99.90;;;;;;20982516;28;20746;-69
2021/09/21 13:56:02;;;;;;;0.55;0.20;;;25.30;99.90;;;;;;20982346;28;20229;-67
2021/09/21 14:06:06;;;;;;;0.35;0.28;;;23.60;99.90;;;;;;20962050;28;20256;-67
2021/09/21 14:16:11;;;;;;;0.20;0.10;;;23.60;99.90;;;;;;20981056;28;20255;-67
2021/09/21 14:26:15;;;;;;;0.20;0.10;;;23.50;99.90;;;;;;20980036;28;20192;-67
2021/09/21 14:36:22;;;;;;;0.52;0.45;;;24.10;99.90;;;;;;20979808;28;20773;-67
2021/09/21 14:46:26;;;;;;;1.20;0.30;;;23.90;99.90;;;;;;20978492;28;20372;-68
2021/09/21 14:56:32;;;;;;;0.28;0.20;;;24.40;99.90;;;;;;20970306;28;20252;-69
2021/09/21 15:06:36;;;;;;;0.20;0.10;;;25.00;99.90;;;;;;20978928;28;20320;-67
2021/09/21 15:16:41;;;;;;;0.35;0.30;;;24.20;99.90;;;;;;20978576;28;20531;-68
2021/09/21 15:26:45;;;;;;;0.55;0.28;;;23.90;99.90;;;;;;20992116;28;20204;-67
2021/09/21 15:36:50;;;;;;;2.38;0.63;;;23.80;99.90;;;;;;20990263;28;20224;-69
2021/09/21 15:46:54;;;;;;;0.20;0.00;;;23.70;99.90;;;;;;20991136;28;20636;-68
2021/09/21 15:57:00;;;;;;;0.35;0.30;;;23.50;99.90;;;;;;20988348;28;20294;-68
2021/09/21 16:07:04;;;;;;;0.22;0.17;;;23.40;99.90;;;;;;21051927;28;20760;-66
2021/09/21 16:17:12;;;;;;;0.30;0.30;;;23.10;99.90;;;;;;21070284;28;20546;-69
2021/09/21 16:27:17;;;;;;;0.20;0.17;;;23.40;99.90;;;;;;21069664;28;20192;-67
2021/09/21 16:37:22;;;;;;;0.35;0.17;;;23.00;99.90;;;;;;21068615;28;20226;-69
2021/09/21 16:47:26;;;;;;;0.30;0.30;;;23.10;99.90;;;;;;21068462;28;20304;-68
2021/09/21 16:57:31;;;;;;;0.20;0.17;;;23.00;99.90;;;;;;21066487;28;20216;-68
2021/09/21 17:07:34;;;;;;;1.33;0.57;;;22.70;99.90;;;;;;21067212;28;20240;-68
2021/09/21 17:17:41;;;;;;;1.43;0.63;;;22.30;99.90;;;;;;21067640;28;20569;-68
2021/09/21 17:27:45;;;;;;;3.23;0.50;;;22.20;99.90;;;;;;20986827;28;20193;-69
2021/09/21 17:37:50;;;;;;;0.57;0.57;;;21.90;99.90;;;;;;20982880;28;20224;-68
2021/09/21 17:47:55;;;;;;;0.20;0.10;;;21.50;99.90;;;;;;20963485;28;20192;-68
2021/09/21 17:58:00;;;;;;;0.30;0.27;;;21.10;99.90;;;;;;20981395;28;20228;-67
2021/09/21 18:08:06;;;;;;;6.67;0.73;;;21.00;99.90;;;;;;20980182;28;20216;-68
2021/09/21 18:18:46;;;;;;;1.07;0.57;;;20.70;99.90;;;;;;20980177;28;20244;-68
2021/09/21 18:28:51;;;;;;;0.40;0.40;;;20.60;99.90;;;;;;20980637;28;20196;-68
2021/09/21 18:38:55;;;;;;;0.20;0.20;;;20.20;99.90;;;;;;20984137;28;20248;-69
2021/09/21 18:49:00;;;;;;;4.90;1.57;;;19.80;99.90;;;;;;20984598;28;20247;-69
2021/09/21 18:59:04;;;;;;;0.80;0.80;;;19.50;99.90;;;;;;20994392;28;20232;-69
2021/09/21 19:09:09;;;;;;;2.30;0.40;;;19.30;99.90;;;;;;20996396;28;20217;-67
2021/09/21 19:19:13;;;;;;;0.23;0.20;;;19.00;99.90;;;;;;20977780;28;20216;-68
2021/09/21 19:29:17;;;;;;;0.93;0.50;;;18.80;99.90;;;;;;20994607;28;20307;-68
2021/09/21 19:39:22;;;;;;;0.20;0.20;;;18.60;99.90;;;;;;20994330;28;20229;-68
2021/09/21 19:49:27;;;;;;;0.40;0.40;;;18.60;99.90;;;;;;20993543;28;20238;-68
2021/09/21 19:59:30;;;;;;;0.20;0.13;;;18.50;99.90;;;;;;20994311;28;20729;-67
2021/09/21 20:09:36;;;;;;;0.30;0.30;;;18.60;99.90;;;;;;21056178;28;20192;-67
2021/09/21 20:19:47;;;;;;;4.43;0.83;;;18.60;99.90;;;;;;21074457;28;20239;-67
2021/09/21 20:29:53;;;;;;;0.97;0.60;;;18.60;99.90;;;;;;21074282;28;20193;-67
2021/09/21 20:40:00;;;;;;;2.73;0.70;;;18.50;99.90;;;;;;21073406;28;20306;-68
2021/09/21 20:50:06;;;;;;;0.20;0.10;;;18.40;99.90;;;;;;21072648;28;20246;-69
2021/09/21 21:00:11;;;;;;;0.20;0.10;;;18.30;99.90;;;;;;21071236;28;20246;-68
2021/09/21 21:10:16;;;;;;;0.60;0.60;;;18.30;99.90;;;;;;21070294;28;20204;-68
2021/09/21 21:20:20;;;;;;;0.63;0.63;;;18.40;99.90;;;;;;21050937;28;20297;-67
2021/09/21 21:30:27;;;;;;;0.40;0.20;;;18.50;99.90;;;;;;20985359;28;20564;-68
2021/09/21 21:40:31;;;;;;;4.23;1.10;;;18.80;99.90;;;;;;20984305;28;20698;-69
2021/09/21 21:50:40;;;;;;;0.20;0.10;;;18.90;99.90;;;;;;20985236;28;20207;-69
2021/09/21 22:00:44;;;;;;;0.20;0.17;;;19.00;99.90;;;;;;20984014;28;20232;-68
2021/09/21 22:10:49;;;;;;;0.33;0.33;;;19.00;99.90;;;;;;20993534;28;20200;-68
2021/09/21 22:20:53;;;;;;;0.20;0.10;;;19.50;99.90;;;;;;20982847;28;20307;-69
2021/09/21 22:30:58;;;;;;;0.60;0.30;;;19.70;99.90;;;;;;20991226;28;20193;-68
2021/09/21 22:41:05;;;;;;;0.20;0.10;;;20.10;99.90;;;;;;20979873;28;20689;-68
2021/09/21 22:51:10;;;;;;;0.20;0.10;;;19.50;99.90;;;;;;20979974;28;20197;-68
2021/09/21 23:01:14;;;;;;;1.03;0.70;;;19.40;99.90;;;;;;20978573;28;20231;-68
2021/09/21 23:11:19;;;;;;;0.47;0.20;;;19.40;99.90;;;;;;20996329;28;20544;-68
2021/09/21 23:21:23;;;;;;;0.20;0.17;;;19.90;99.90;;;;;;20977823;28;20246;-66
2021/09/21 23:31:28;;;;;;;1.17;0.30;;;20.30;99.90;;;;;;20993462;28;20199;-68
2021/09/21 23:41:31;;;;;;;1.10;0.80;;;20.40;99.90;;;;;;20993244;28;20217;-68
2021/09/21 23:51:36;;;;;;;0.30;0.30;;;20.40;99.90;;;;;;20993373;28;20201;-68
